Time;durP1;ratioP1;P1;durP2;ratioP2;P2;SDS_P1;SDS_P2;PMS_P1;PMS_P2;Temp;Humidity;BMP_temperature;BMP_pressure;BME280_temperature;BME280_humidity;BME280_pressure;Samples;Min_cycle;Max_cycle;Signal;HPM_P1;HPM_P2
2021/11/09 07:29:00;;;;;;;7.95;6.12;;;;;;;4.37;92.22;98990.78;1890800;75;28523;-59
2021/11/09 07:31:29;;;;;;;7.00;4.72;;;;;;;4.31;91.72;99000.98;1860027;77;20871;-58
2021/11/09 07:33:56;;;;;;;5.53;3.77;;;;;;;4.36;91.53;99010.41;1859553;77;21081;-58
2021/11/09 07:36:23;;;;;;;6.47;3.85;;;;;;;4.41;91.00;99022.45;1859620;77;21347;-61
2021/11/09 07:38:50;;;;;;;8.03;3.83;;;;;;;4.45;91.02;99024.42;1854398;77;20954;-62
2021/11/09 07:41:17;;;;;;;8.00;3.60;;;;;;;4.54;90.64;99032.89;1860783;77;20905;-59
2021/11/09 07:43:44;;;;;;;4.45;3.30;;;;;;;4.59;90.23;99031.70;1855884;77;21426;-60
2021/11/09 07:46:11;;;;;;;5.75;3.27;;;;;;;4.60;89.79;99037.28;1854328;77;21062;-59
2021/11/09 07:48:38;;;;;;;6.00;3.30;;;;;;;4.60;89.70;99042.59;1857421;77;20979;-61
2021/11/09 07:51:05;;;;;;;4.17;3.20;;;;;;;4.61;89.15;99041.56;1859096;77;20859;-59
2021/11/09 07:53:35;;;;;;;5.67;3.10;;;;;;;4.63;88.96;99045.61;1853488;77;21095;-61
2021/11/09 07:56:11;;;;;;;8.78;3.47;;;;;;;4.70;88.25;99050.81;1844068;77;21007;-60
2021/11/09 07:58:39;;;;;;;4.05;2.80;;;;;;;4.74;88.47;99055.44;1851160;77;21479;-59
2021/11/09 08:01:10;;;;;;;4.62;2.92;;;;;;;4.80;87.38;99058.50;1857931;77;21185;-57
2021/11/09 08:03:47;;;;;;;8.08;3.55;;;;;;;4.90;86.72;99059.28;1860010;77;21005;-63
2021/11/09 11:12:21;;;;;;;2.52;1.70;;;;;;;6.51;57.81;99290.44;1828561;77;22788;-61
2021/11/09 11:14:48;;;;;;;3.15;1.20;;;;;;;6.53;57.24;99299.51;1786690;78;20993;-61
2021/11/09 11:17:17;;;;;;;3.20;1.30;;;;;;;6.56;56.14;99294.55;1806344;78;20991;-60
2021/11/09 11:19:57;;;;;;;3.00;1.90;;;;;;;6.60;56.29;99303.67;1733932;80;20996;-58
2021/11/09 11:22:28;;;;;;;2.77;1.70;;;;;;;6.73;56.24;99310.10;1761742;80;20987;-61
2021/11/09 11:24:57;;;;;;;1.98;1.55;;;;;;;6.86;55.26;99302.36;1733168;81;20874;-58
2021/11/09 11:27:27;;;;;;;2.55;1.72;;;;;;;6.98;55.30;99307.67;1761394;80;20966;-59
2021/11/09 11:29:57;;;;;;;2.50;1.35;;;;;;;7.06;54.19;99315.30;1751477;81;21098;-59
2021/11/09 11:32:25;;;;;;;1.98;1.30;;;;;;;7.11;54.22;99314.08;1736292;81;21019;-60
2021/11/09 11:34:53;;;;;;;2.50;1.37;;;;;;;7.19;54.79;99316.36;1745731;81;21101;-62
2021/11/09 11:37:20;;;;;;;2.00;1.50;;;;;;;7.30;53.64;99324.86;1761451;80;21082;-60
2021/11/09 11:39:51;;;;;;;1.50;1.20;;;;;;;7.37;52.90;99328.20;1726514;83;20850;-62
2021/11/09 11:42:18;;;;;;;2.00;1.47;;;;;;;7.38;52.77;99335.95;1762724;80;21098;-59
2021/11/09 11:45:00;;;;;;;1.65;1.22;;;;;;;7.45;52.99;99337.95;1744351;81;20975;-61
2021/11/09 11:47:27;;;;;;;1.98;1.30;;;;;;;7.56;52.13;99337.61;1746689;80;20892;-58
2021/11/09 11:50:07;;;;;;;2.02;1.10;;;;;;;7.65;52.09;99337.53;1766801;80;20975;-57
2021/11/09 11:52:42;;;;;;;2.15;1.20;;;;;;;7.67;51.43;99343.44;1733572;80;20922;-61
2021/11/09 11:55:26;;;;;;;1.77;1.35;;;;;;;7.69;51.12;99344.00;1755378;81;21115;-60
2021/11/09 11:58:09;;;;;;;2.12;1.37;;;;;;;7.78;50.89;99343.90;1736088;81;20991;-58
2021/11/09 12:00:53;;;;;;;2.62;0.93;;;;;;;7.81;49.86;99358.10;1729077;81;20877;-60
2021/11/09 12:03:27;;;;;;;1.20;1.10;;;;;;;7.83;49.15;99357.33;1764752;80;20940;-61
2021/11/09 12:05:57;;;;;;;3.22;1.35;;;;;;;7.79;49.48;99358.87;1767681;81;20979;-59
2021/11/09 12:08:42;;;;;;;1.60;1.25;;;;;;;7.86;49.35;99362.72;1747165;81;21116;-61
2021/11/09 12:11:24;;;;;;;3.40;1.50;;;;;;;7.96;49.26;99371.70;1748876;81;20932;-58
2021/11/09 12:14:11;;;;;;;3.00;1.40;;;;;;;7.93;48.84;99362.86;1735921;80;20932;-61
2021/11/09 12:16:57;;;;;;;2.10;1.60;;;;;;;7.97;48.85;99363.98;1740587;81;20932;-59
2021/11/09 12:19:47;;;;;;;3.20;1.25;;;;;;;8.04;47.19;99364.64;1756143;81;21407;-57
2021/11/09 12:22:18;;;;;;;2.77;1.17;;;;;;;8.09;46.36;99368.74;1741752;81;21104;-59
2021/11/09 12:24:58;;;;;;;1.57;1.10;;;;;;;8.18;45.67;99367.29;1721787;82;20952;-60
2021/11/09 12:27:53;;;;;;;2.27;1.30;;;;;;;8.16;45.25;99372.06;1793233;78;20936;-63
2021/11/09 12:30:46;;;;;;;4.08;2.20;;;;;;;8.14;45.27;99366.16;1761253;80;21030;-60
2021/11/09 12:33:21;;;;;;;2.20;1.30;;;;;;;8.11;44.81;99367.97;1794807;78;20907;-59
2021/11/09 12:36:00;;;;;;;4.97;1.50;;;;;;;8.08;44.21;99377.78;1800145;78;21080;-59
2021/11/09 12:38:34;;;;;;;2.90;1.40;;;;;;;8.08;44.32;99380.45;1794698;78;21376;-60
2021/11/09 12:41:05;;;;;;;3.42;1.70;;;;;;;8.09;43.85;99382.09;1790564;79;20956;-57
2021/11/09 12:43:47;;;;;;;3.67;1.87;;;;;;;8.18;44.49;99381.16;1803064;78;20959;-60
2021/11/09 12:46:26;;;;;;;1.90;1.35;;;;;;;8.21;45.01;99389.50;1793562;78;21022;-58
2021/11/09 12:49:15;;;;;;;1.72;1.20;;;;;;;8.06;45.31;99393.23;1799862;78;21231;-61
2021/11/09 12:51:50;;;;;;;1.57;1.40;;;;;;;7.85;46.29;99393.09;1756813;80;21011;-57
2021/11/09 12:54:23;;;;;;;2.03;1.50;;;;;;;7.59;46.61;99406.47;1751182;82;20950;-59
2021/11/09 12:56:57;;;;;;;3.05;1.55;;;;;;;7.36;47.70;99402.53;1789111;80;21006;-59
2021/11/09 13:09:59;;;;;;;3.02;1.80;;;;;;;7.69;46.14;99413.34;1790371;80;20935;-62
2021/11/09 13:12:30;;;;;;;2.98;2.05;;;;;;;7.76;45.44;99414.02;1783834;80;21016;-57
2021/11/09 13:15:06;;;;;;;2.05;1.55;;;;;;;7.77;45.62;99416.98;1782006;80;21834;-57
2021/11/09 13:17:48;;;;;;;2.25;1.65;;;;;;;7.73;44.75;99421.15;1783349;80;20945;-59
2021/11/09 13:22:58;;;;;;;2.70;1.60;;;;;;;7.68;45.35;99425.05;1782233;80;21430;-59
2021/11/09 13:25:55;;;;;;;5.22;2.25;;;;;;;7.65;45.22;99430.88;1782065;80;20886;-58
2021/11/09 13:28:33;;;;;;;6.65;3.95;;;;;;;7.54;45.55;99433.02;1781700;80;21080;-56
2021/11/09 13:31:02;;;;;;;7.67;4.58;;;;;;;7.35;46.86;99435.03;1769488;80;21512;-58
2021/11/09 13:33:30;;;;;;;5.00;3.55;;;;;;;7.22;47.53;99438.48;1774049;80;20959;-61
2021/11/09 13:35:58;;;;;;;5.47;3.70;;;;;;;7.11;48.69;99445.97;1774888;80;20994;-61
2021/11/09 13:38:35;;;;;;;12.70;6.22;;;;;;;6.96;49.23;99445.61;1774678;80;21111;-62
2021/11/09 13:41:10;;;;;;;10.50;5.28;;;;;;;6.83;49.94;99452.78;1774435;80;21111;-60
